Latest Weather Observations for Mount Bundey South (Defence)

IDD60801

Issued at 10:41 pm CST Sunday 21 July 2019 (issued every 10 minutes, with the page automatically refreshed every 10 minutes)

About weather observations | Map of weather stations | Latest weather observations for NT | Other Formats
Station Details ID: 014984 Name: MOUNT BUNDEY SOUTH (DEFENCE) Lat: -13.09 Lon: 131.85 Height: 55.0 m
Data from the previous 72 hours. | See also: Recent months at Mount Bundey South (Defence)
Date/Time
CST
Temp
°C
App
Temp
°C
Dew
Point
°C
Rel
Hum
%
Delta-T
°C
Wind Press
QNH
hPa
Press
MSL
hPa
Rain since
9am
mm
Dir  Spd
km/h
Gust
km/h
Spd
kts
Gust
kts
21/10:30pm 19.6 19.3 8.6 49 5.7 CALM 0 0 0 0 1014.6 1014.4 0.0
21/10:00pm 21.0 20.8 8.9 46 6.4 CALM 0 0 0 0 1014.4 1014.2 0.0
21/09:30pm 23.6 23.4 10.6 44 7.2 NNW 2 4 1 2 1013.9 1013.7 0.0
21/09:00pm 24.7 23.7 9.0 37 8.5 N 4 7 2 4 1013.6 1013.4 0.0
21/08:30pm 25.3 23.2 6.0 29 10.0 NNW 6 9 3 5 1013.2 1013.0 0.0
21/08:00pm 25.4 23.3 4.0 25 10.7 NE 4 4 2 2 1012.7 1012.5 0.0
21/07:30pm 26.4 24.2 3.6 23 11.3 NE 4 6 2 3 1012.3 1012.1 0.0
21/07:00pm 27.5 26.0 3.2 21 12.1 CALM 0 0 0 0 1012.1 1011.9 0.0
21/06:30pm 30.2 27.9 2.5 17 13.9 NNE 4 6 2 3 1011.7 1011.4 0.0
21/06:00pm 32.0 29.2 2.1 15 15.0 ENE 6 9 3 5 1011.5 1011.2 0.0
21/05:30pm 32.7 29.7 1.7 14 15.6 E 7 15 4 8 1011.3 1011.0 0.0
21/05:00pm 33.0 29.4 0.9 13 15.9 E 9 19 5 10 1011.3 1011.0 0.0
21/04:30pm 32.9 29.1 1.9 14 15.6 ESE 11 20 6 11 1011.4 1011.1 0.0
21/04:00pm 32.9 30.6 2.9 15 15.4 E 4 9 2 5 1011.5 1011.2 0.0
21/03:30pm 32.9 29.9 1.9 14 15.6 ESE 7 13 4 7 1011.7 1011.4 0.0
21/03:00pm 33.2 29.5 2.1 14 15.8 ESE 11 20 6 11 1012.0 1011.7 0.0
21/02:30pm 32.4 29.1 2.5 15 15.2 SE 9 15 5 8 1012.3 1012.1 0.0
21/02:00pm 31.6 29.0 4.4 18 14.2 S 7 20 4 11 1013.0 1012.8 0.0
21/01:30pm 31.2 28.6 6.3 21 13.4 SSE 9 19 5 10 1013.6 1013.4 0.0
21/01:00pm 30.9 29.3 8.0 24 12.6 E 6 15 3 8 1014.3 1014.1 0.0
21/12:30pm 29.7 27.8 7.6 25 12.0 NE 7 15 4 8 1014.8 1014.6 0.0
21/12:00pm 29.0 27.7 9.2 29 11.0 ESE 6 13 3 7 1015.4 1015.2 0.0
21/11:30am 27.8 26.8 10.9 35 9.6 E 7 15 4 8 1015.7 1015.5 0.0
21/11:00am 26.7 26.6 13.4 43 7.8 SE 6 11 3 6 1016.0 1015.8 0.0
21/10:30am 25.2 25.4 14.3 50 6.5 SE 6 11 3 6 1016.4 1016.2 0.0
21/10:00am 24.2 25.2 15.4 58 5.3 SSW 4 11 2 6 1016.6 1016.4 0.0
21/09:30am 23.1 24.3 15.9 64 4.4 SSW 4 9 2 5 1016.7 1016.5 0.0
21/09:00am 21.8 23.6 15.4 67 3.8 CALM 0 0 0 0 1016.5 1016.3 0.0
21/08:30am 19.7 20.5 14.7 73 2.9 SE 4 6 2 3 1016.5 1016.3 0.0
21/08:00am 17.1 17.3 13.2 78 2.2 ESE 4 4 2 2 1016.5 1016.3 0.0
21/07:30am 14.5 15.1 11.8 84 1.5 CALM 0 0 0 0 1016.1 1015.9 0.0
21/07:00am 14.5 15.0 11.7 83 1.5 CALM 0 0 0 0 1015.8 1015.6 0.0
21/06:30am 14.5 15.0 11.5 82 1.6 CALM 0 0 0 0 1015.8 1015.6 0.0
21/06:00am 14.7 15.2 11.7 82 1.6 CALM 0 0 0 0 1015.6 1015.4 0.0
21/05:30am 15.0 15.7 12.3 84 1.5 CALM 0 0 0 0 1015.4 1015.2 0.0
21/05:00am 15.1 15.8 12.1 82 1.6 CALM 0 0 0 0 1015.3 1015.1 0.0
21/04:30am 15.3 15.8 11.5 78 2.0 CALM 0 0 0 0 1015.3 1015.1 0.0
21/04:00am 16.1 16.7 11.9 76 2.3 CALM 0 0 0 0 1015.3 1015.1 0.0
21/03:30am 16.6 17.1 11.7 73 2.7 CALM 0 0 0 0 1015.5 1015.3 0.0
21/03:00am 17.3 18.3 13.2 77 2.3 CALM 0 0 0 0 1015.6 1015.4 0.0
21/02:30am 17.8 19.0 13.7 77 2.3 CALM 0 0 0 0 1015.7 1015.5 0.0
21/02:00am 17.7 18.7 13.2 75 2.5 CALM 0 0 0 0 1015.7 1015.5 0.0
21/01:30am 17.6 18.5 12.9 74 2.6 CALM 0 0 0 0 1015.8 1015.6 0.0
21/01:00am 17.3 17.9 11.8 70 3.0 CALM 0 0 0 0 1015.7 1015.5 0.0
21/12:30am 17.7 18.1 11.3 66 3.5 CALM 0 0 0 0 1015.4 1015.2 0.0
21/12:00am 18.2 18.4 10.6 61 4.1 CALM 0 0 0 0 1015.4 1015.2 0.0
 
Date/Time
CST
Temp
°C
App
Temp
°C
Dew
Point
°C
Rel
Hum
%
Delta-T
°C
Wind Press
QNH
hPa
Press
MSL
hPa
Rain since
9am
mm
Dir  Spd
km/h
Gust
km/h
Spd
kts
Gust
kts
20/11:30pm 19.6 20.1 11.6 60 4.4 CALM 0 0 0 0 1015.2 1015.0 0.0
20/11:00pm 20.3 20.3 9.8 51 5.6 CALM 0 4 0 2 1015.4 1015.2 0.0
20/10:30pm 22.9 22.8 12.2 51 6.1 N 4 7 2 4 1015.2 1015.0 0.0
20/10:00pm 23.6 23.2 12.3 49 6.5 NNE 6 11 3 6 1015.4 1015.2 0.0
20/09:30pm 21.9 21.5 8.4 42 7.1 CALM 0 2 0 1 1015.2 1015.0 0.0
20/09:00pm 23.4 23.1 8.7 39 7.9 CALM 0 4 0 2 1014.8 1014.6 0.0
20/08:30pm 24.3 22.6 8.3 36 8.5 NNW 7 11 4 6 1014.4 1014.2 0.0
20/08:00pm 24.2 22.8 3.5 26 10.1 CALM 0 0 0 0 1013.7 1013.5 0.0
20/07:30pm 25.9 24.4 3.2 23 11.2 CALM 0 0 0 0 1013.3 1013.1 0.0
20/07:00pm 27.9 25.5 2.2 19 12.6 ENE 4 6 2 3 1012.9 1012.7 0.0
20/06:30pm 31.0 28.2 -0.6 13 15.1 ENE 4 6 2 3 1012.7 1012.5 0.0
20/06:00pm 33.2 30.3 -1.2 11 16.5 ESE 4 7 2 4 1012.6 1012.4 0.0
20/05:30pm 33.9 29.9 -2.0 10 17.1 ESE 9 15 5 8 1012.3 1012.1 0.0
20/05:00pm 34.1 29.4 -1.8 10 17.1 ESE 13 20 7 11 1012.4 1012.2 0.0
20/04:30pm 34.1 29.8 -1.8 10 17.2 SE 11 19 6 10 1012.4 1012.2 0.0
20/04:00pm 34.1 29.4 -1.8 10 17.1 SSE 13 24 7 13 1012.5 1012.3 0.0
20/03:30pm 34.3 29.6 -1.7 10 17.3 S 13 26 7 14 1012.7 1012.5 0.0
20/03:00pm 34.1 30.3 1.8 13 16.4 ESE 11 26 6 14 1013.1 1012.9 0.0
20/02:30pm 33.0 29.8 0.9 13 15.9 SE 7 15 4 8 1013.6 1013.4 0.0
20/02:00pm 32.5 29.6 2.5 15 15.2 ESE 7 19 4 10 1014.2 1014.0 0.0
20/01:30pm 32.0 28.6 3.9 17 14.5 ESE 11 19 6 10 1014.9 1014.7 0.0
20/01:00pm 31.6 28.7 4.4 18 14.2 ESE 9 19 5 10 1015.4 1015.2 0.0
20/12:30pm 30.9 27.9 6.0 21 13.3 E 11 19 6 10 1016.3 1016.1 0.0
20/12:00pm 30.8 28.4 8.5 25 12.4 ESE 11 19 6 10 1016.9 1016.7 0.0
20/11:30am 28.9 26.1 8.6 28 11.2 ESE 13 22 7 12 1017.3 1017.1 0.0
20/11:00am 28.2 26.1 9.9 32 10.3 ESE 11 17 6 9 1017.7 1017.5 0.0
20/10:30am 27.1 26.0 12.0 39 8.7 ESE 9 13 5 7 1018.0 1017.8 0.0
20/10:00am 25.6 25.1 12.8 45 7.4 E 7 9 4 5 1018.1 1017.9 0.0
20/09:30am 24.7 24.5 13.0 48 6.8 E 6 9 3 5 1018.2 1018.0 0.0
20/09:00am 23.1 22.5 12.4 51 6.1 ESE 7 15 4 8 1018.0 1017.8 0.0
20/08:30am 20.8 20.9 12.8 60 4.5 SSE 4 9 2 5 1017.8 1017.6 0.0
20/08:00am 17.5 18.3 12.6 73 2.7 CALM 0 0 0 0 1017.5 1017.3 0.0
20/07:30am 16.0 16.7 12.2 78 2.1 CALM 0 0 0 0 1017.3 1017.1 0.0
20/07:00am 16.4 16.9 11.6 73 2.6 CALM 0 2 0 1 1016.8 1016.6 0.0
20/06:30am 17.6 17.9 12.3 71 2.9 SE 2 4 1 2 1016.7 1016.5 0.0
20/06:00am 17.6 17.4 12.9 74 2.6 SE 6 6 3 3 1016.4 1016.2 0.0
20/05:30am 18.2 18.7 12.9 71 3.0 SE 2 6 1 3 1016.1 1015.9 0.0
20/05:00am 18.2 18.7 12.9 71 3.0 ESE 2 6 1 3 1016.1 1015.9 0.0
20/04:30am 17.5 18.2 12.2 71 2.9 CALM 0 2 0 1 1016.0 1015.8 0.0
20/04:00am 17.9 18.8 12.8 72 2.9 CALM 0 0 0 0 1015.8 1015.6 0.0
20/03:30am 18.1 19.0 12.8 71 3.0 CALM 0 0 0 0 1015.9 1015.7 0.0
20/03:00am 18.3 18.8 11.6 65 3.7 CALM 0 0 0 0 1016.0 1015.8 0.0
20/02:30am 19.2 20.2 13.2 68 3.4 CALM 0 0 0 0 1016.1 1015.9 0.0
20/02:00am 19.4 20.5 13.6 69 3.3 CALM 0 0 0 0 1016.4 1016.2 0.0
20/01:30am 19.3 20.0 12.3 64 3.9 CALM 0 0 0 0 1016.5 1016.3 0.0
20/01:00am 19.7 20.5 12.5 63 4.0 CALM 0 0 0 0 1016.6 1016.4 0.0
20/12:30am 19.6 20.1 11.6 60 4.4 CALM 0 0 0 0 1016.5 1016.3 0.0
20/12:00am 19.4 19.8 11.2 59 4.5 CALM 0 0 0 0 1016.4 1016.2 0.0
 
Date/Time
CST
Temp
°C
App
Temp
°C
Dew
Point
°C
Rel
Hum
%
Delta-T
°C
Wind Press
QNH
hPa
Press
MSL
hPa
Rain since
9am
mm
Dir  Spd
km/h
Gust
km/h
Spd
kts
Gust
kts
19/11:30pm 19.8 20.0 10.5 55 5.0 CALM 0 0 0 0 1016.4 1016.2 0.0
19/11:00pm 20.4 20.5 10.2 52 5.5 CALM 0 0 0 0 1016.5 1016.3 0.0
19/10:30pm 21.3 21.3 9.9 48 6.2 CALM 0 0 0 0 1016.4 1016.2 0.0
19/10:00pm 22.3 22.2 9.5 44 6.9 CALM 0 0 0 0 1016.0 1015.8 0.0
19/09:30pm 23.7 22.8 9.3 40 7.8 NNW 4 6 2 3 1015.7 1015.5 0.0
19/09:00pm 24.7 23.3 9.0 37 8.5 NW 6 11 3 6 1015.4 1015.2 0.0
19/08:30pm 25.6 24.0 8.1 33 9.4 NE 6 6 3 3 1014.9 1014.7 0.0
19/08:00pm 26.5 25.3 8.0 31 10.0 NE 4 6 2 3 1014.5 1014.3 0.0
19/07:30pm 26.8 25.4 7.3 29 10.4 ENE 4 4 2 2 1014.1 1013.9 0.0
19/07:00pm 28.9 27.6 7.5 26 11.6 ENE 4 7 2 4 1013.7 1013.5 0.0
19/06:30pm 30.5 28.8 7.7 24 12.5 ENE 6 7 3 4 1013.4 1013.2 0.0
19/06:00pm 31.6 29.6 7.3 22 13.3 ENE 7 15 4 8 1013.2 1013.0 0.0
19/05:30pm 32.4 29.9 6.6 20 14.0 ENE 9 15 5 8 1013.0 1012.8 0.0
19/05:00pm 33.0 29.7 4.7 17 14.9 NE 11 19 6 10 1012.7 1012.5 0.0
19/04:30pm 33.5 30.2 2.4 14 15.9 ESE 9 20 5 11 1012.6 1012.4 0.0
19/04:00pm 33.1 29.6 1.0 13 16.0 SE 9 17 5 9 1012.5 1012.3 0.0
19/03:30pm 33.2 28.6 -1.2 11 16.5 E 13 20 7 11 1012.7 1012.5 0.0
19/03:00pm 33.0 28.9 -0.2 12 16.2 E 11 20 6 11 1013.0 1012.8 0.0
19/02:30pm 32.8 28.1 0.8 13 15.8 ESE 15 22 8 12 1013.3 1013.1 0.0
19/02:00pm 32.6 28.2 0.6 13 15.7 ESE 13 22 7 12 1013.5 1013.3 0.0
19/01:30pm 31.9 28.1 3.8 17 14.5 E 13 20 7 11 1014.0 1013.8 0.0
19/01:00pm 31.7 28.5 5.3 19 14.0 ESE 11 20 6 11 1014.6 1014.4 0.0
19/12:30pm 30.5 27.3 5.0 20 13.3 ENE 11 20 6 11 1015.0 1014.8 0.0
19/12:00pm 30.4 26.8 4.9 20 13.3 ESE 13 26 7 14 1015.6 1015.4 0.0
19/11:30am 29.3 25.8 5.4 22 12.5 E 13 26 7 14 1016.2 1016.0 0.0
19/11:00am 28.6 25.1 7.2 26 11.5 ESE 15 26 8 14 1016.6 1016.4 0.0
19/10:30am 27.3 24.4 8.2 30 10.3 ESE 13 22 7 12 1017.0 1016.8 0.0
19/10:00am 25.9 23.7 9.3 35 9.1 ESE 11 20 6 11 1017.3 1017.1 0.0
19/09:30am 23.8 22.3 10.5 43 7.4 ESE 9 17 5 9 1017.5 1017.3 0.0
19/09:00am 21.8 20.9 11.2 51 5.9 SE 7 15 4 8 1017.5 1017.3 0.0
19/08:30am 19.1 18.0 10.1 56 4.8 SE 6 9 3 5 1017.3 1017.1 0.0
19/08:00am 16.9 16.1 9.8 63 3.7 SE 4 6 2 3 1017.0 1016.8 0.0
19/07:30am 14.8 13.9 10.6 76 2.2 SE 6 6 3 3 1016.7 1016.5 0.0
19/07:00am 14.0 13.6 11.0 82 1.6 SE 4 6 2 3 1016.3 1016.1 0.0
19/06:30am 13.6 12.9 10.2 80 1.8 SSE 4 6 2 3 1016.1 1015.9 0.0
19/06:00am 14.4 14.0 11.2 81 1.7 SE 4 4 2 2 1016.0 1015.8 0.0
19/05:30am 14.3 14.4 10.3 77 2.1 CALM 0 2 0 1 1016.0 1015.8 0.0
19/05:00am 15.1 15.3 10.7 75 2.3 CALM 0 0 0 0 1015.8 1015.6 0.0
19/04:30am 15.8 16.1 10.8 72 2.7 CALM 0 0 0 0 1015.7 1015.5 0.0
19/04:00am 16.8 17.2 11.3 70 3.0 CALM 0 0 0 0 1015.6 1015.4 0.0
19/03:30am 17.3 17.9 12.0 71 2.9 CALM 0 0 0 0 1015.5 1015.3 0.0
19/03:00am 16.9 17.1 10.5 66 3.4 CALM 0 0 0 0 1015.8 1015.6 0.0
19/02:30am 17.5 17.0 10.9 65 3.6 SE 4 6 2 3 1016.0 1015.8 0.0
19/02:00am 17.0 17.2 10.4 65 3.5 CALM 0 0 0 0 1016.2 1016.0 0.0
19/01:30am 17.9 18.2 10.8 63 3.8 CALM 0 0 0 0 1016.1 1015.9 0.0
19/01:00am 18.5 18.8 10.8 61 4.2 CALM 0 0 0 0 1016.2 1016.0 0.0
19/12:30am 19.2 19.6 11.3 60 4.3 CALM 0 0 0 0 1016.3 1016.1 0.0
19/12:00am 19.1 19.4 10.9 59 4.5 CALM 0 0 0 0 1016.3 1016.1 0.0
 
Date/Time
CST
Temp
°C
App
Temp
°C
Dew
Point
°C
Rel
Hum
%
Delta-T
°C
Wind Press
QNH
hPa
Press
MSL
hPa
Rain since
9am
mm
Dir  Spd
km/h
Gust
km/h
Spd
kts
Gust
kts
18/11:30pm 19.3 19.4 10.0 55 5.0 CALM 0 0 0 0 1016.3 1016.1 0.0
18/11:00pm 20.5 20.7 10.6 53 5.4 CALM 0 0 0 0 1016.2 1016.0 0.0

Other formats

Comma delimited format used in spreadsheet applications
http://www.bom.gov.au/fwo/IDD60801/IDD60801.94112.axf

JavaScript Object Notation format (JSON) in row-major order
http://www.bom.gov.au/fwo/IDD60801/IDD60801.94112.json

Data quality

Most of these data are generated automatically and are frequently updated. Quality checks on data are not normally performed. It is possible for incorrect values to appear. Refer to information at About Latest Weather Observations and please check the disclaimer before using these data.